sensor_id;sensor_type;location;lat;lon;timestamp;P1;durP1;ratioP1;P2;durP2;ratioP2
14768;SDS011;7476;49.404;11.152;2023-04-03T00:00:36;3.83;;;2.40;;
14768;SDS011;7476;49.404;11.152;2023-04-03T00:03:03;2.47;;;2.27;;
14768;SDS011;7476;49.404;11.152;2023-04-03T00:05:29;3.03;;;2.53;;
14768;SDS011;7476;49.404;11.152;2023-04-03T00:07:57;2.47;;;2.27;;
14768;SDS011;7476;49.404;11.152;2023-04-03T00:10:24;2.50;;;2.30;;
14768;SDS011;7476;49.404;11.152;2023-04-03T00:12:51;3.10;;;2.30;;
14768;SDS011;7476;49.404;11.152;2023-04-03T00:15:18;4.67;;;2.30;;
14768;SDS011;7476;49.404;11.152;2023-04-03T00:17:44;2.90;;;2.40;;
14768;SDS011;7476;49.404;11.152;2023-04-03T00:20:11;2.40;;;2.20;;
14768;SDS011;7476;49.404;11.152;2023-04-03T00:22:38;2.83;;;2.50;;
14768;SDS011;7476;49.404;11.152;2023-04-03T00:25:07;4.10;;;2.70;;
14768;SDS011;7476;49.404;11.152;2023-04-03T00:27:35;2.80;;;2.47;;
14768;SDS011;7476;49.404;11.152;2023-04-03T00:30:03;3.47;;;2.23;;
14768;SDS011;7476;49.404;11.152;2023-04-03T00:32:30;4.80;;;2.57;;
14768;SDS011;7476;49.404;11.152;2023-04-03T00:34:57;2.80;;;2.40;;
14768;SDS011;7476;49.404;11.152;2023-04-03T00:37:24;2.97;;;2.50;;
14768;SDS011;7476;49.404;11.152;2023-04-03T00:39:51;2.50;;;2.30;;
14768;SDS011;7476;49.404;11.152;2023-04-03T00:42:19;3.37;;;2.40;;
14768;SDS011;7476;49.404;11.152;2023-04-03T00:47:49;2.57;;;2.33;;
14768;SDS011;7476;49.404;11.152;2023-04-03T00:50:16;3.10;;;2.30;;
14768;SDS011;7476;49.404;11.152;2023-04-03T00:52:43;2.33;;;2.13;;
14768;SDS011;7476;49.404;11.152;2023-04-03T00:55:11;2.70;;;2.27;;
14768;SDS011;7476;49.404;11.152;2023-04-03T00:57:40;2.77;;;2.40;;
14768;SDS011;7476;49.404;11.152;2023-04-03T01:00:10;2.60;;;2.30;;
14768;SDS011;7476;49.404;11.152;2023-04-03T01:02:40;4.50;;;2.47;;
14768;SDS011;7476;49.404;11.152;2023-04-03T01:05:07;3.90;;;2.30;;
14768;SDS011;7476;49.404;11.152;2023-04-03T01:07:34;3.23;;;2.30;;
14768;SDS011;7476;49.404;11.152;2023-04-03T01:10:03;2.50;;;2.30;;
14768;SDS011;7476;49.404;11.152;2023-04-03T01:12:33;2.30;;;2.10;;
14768;SDS011;7476;49.404;11.152;2023-04-03T01:15:03;3.67;;;2.30;;
14768;SDS011;7476;49.404;11.152;2023-04-03T01:17:32;2.40;;;2.20;;
14768;SDS011;7476;49.404;11.152;2023-04-03T01:20:14;3.53;;;2.60;;
14768;SDS011;7476;49.404;11.152;2023-04-03T01:23:08;2.83;;;2.43;;
14768;SDS011;7476;49.404;11.152;2023-04-03T01:25:42;2.77;;;2.50;;
14768;SDS011;7476;49.404;11.152;2023-04-03T01:28:11;2.47;;;2.27;;
14768;SDS011;7476;49.404;11.152;2023-04-03T01:30:43;2.67;;;2.40;;
14768;SDS011;7476;49.404;11.152;2023-04-03T01:33:16;2.53;;;2.33;;
14768;SDS011;7476;49.404;11.152;2023-04-03T01:35:42;2.83;;;2.60;;
14768;SDS011;7476;49.404;11.152;2023-04-03T01:38:09;4.03;;;2.23;;
14768;SDS011;7476;49.404;11.152;2023-04-03T01:40:36;2.50;;;2.30;;
14768;SDS011;7476;49.404;11.152;2023-04-03T01:43:04;3.57;;;2.37;;
14768;SDS011;7476;49.404;11.152;2023-04-03T01:45:30;3.10;;;2.70;;
14768;SDS011;7476;49.404;11.152;2023-04-03T01:47:57;3.70;;;2.80;;
14768;SDS011;7476;49.404;11.152;2023-04-03T01:50:25;2.83;;;2.30;;
14768;SDS011;7476;49.404;11.152;2023-04-03T01:52:52;2.70;;;2.40;;
14768;SDS011;7476;49.404;11.152;2023-04-03T01:55:18;2.87;;;2.37;;
14768;SDS011;7476;49.404;11.152;2023-04-03T01:57:45;3.27;;;2.40;;
14768;SDS011;7476;49.404;11.152;2023-04-03T02:00:12;2.50;;;2.13;;
14768;SDS011;7476;49.404;11.152;2023-04-03T02:02:39;2.37;;;2.17;;
14768;SDS011;7476;49.404;11.152;2023-04-03T02:05:06;3.80;;;2.50;;
14768;SDS011;7476;49.404;11.152;2023-04-03T02:07:34;2.57;;;2.37;;
14768;SDS011;7476;49.404;11.152;2023-04-03T02:10:01;5.17;;;2.80;;
14768;SDS011;7476;49.404;11.152;2023-04-03T02:12:28;4.33;;;2.40;;
14768;SDS011;7476;49.404;11.152;2023-04-03T02:14:55;3.03;;;2.50;;
14768;SDS011;7476;49.404;11.152;2023-04-03T02:17:21;3.97;;;2.43;;
14768;SDS011;7476;49.404;11.152;2023-04-03T02:19:48;3.63;;;2.50;;
14768;SDS011;7476;49.404;11.152;2023-04-03T02:22:15;2.67;;;2.47;;
14768;SDS011;7476;49.404;11.152;2023-04-03T02:24:43;2.33;;;2.10;;
14768;SDS011;7476;49.404;11.152;2023-04-03T02:27:10;2.80;;;2.60;;
14768;SDS011;7476;49.404;11.152;2023-04-03T02:29:36;3.67;;;2.50;;
14768;SDS011;7476;49.404;11.152;2023-04-03T02:32:03;2.93;;;2.40;;
14768;SDS011;7476;49.404;11.152;2023-04-03T02:34:30;2.87;;;2.67;;
14768;SDS011;7476;49.404;11.152;2023-04-03T02:36:57;3.30;;;2.63;;
14768;SDS011;7476;49.404;11.152;2023-04-03T02:39:24;2.23;;;2.03;;
14768;SDS011;7476;49.404;11.152;2023-04-03T02:41:52;2.93;;;2.50;;
14768;SDS011;7476;49.404;11.152;2023-04-03T02:44:19;3.37;;;2.50;;
14768;SDS011;7476;49.404;11.152;2023-04-03T02:46:45;4.53;;;2.50;;
14768;SDS011;7476;49.404;11.152;2023-04-03T02:49:12;4.03;;;2.60;;
14768;SDS011;7476;49.404;11.152;2023-04-03T02:51:39;3.13;;;2.40;;
14768;SDS011;7476;49.404;11.152;2023-04-03T02:54:05;3.20;;;2.30;;
14768;SDS011;7476;49.404;11.152;2023-04-03T02:56:32;2.90;;;2.60;;
14768;SDS011;7476;49.404;11.152;2023-04-03T02:59:00;2.70;;;2.40;;
14768;SDS011;7476;49.404;11.152;2023-04-03T03:01:27;4.20;;;2.60;;
14768;SDS011;7476;49.404;11.152;2023-04-03T03:03:56;3.20;;;2.53;;
14768;SDS011;7476;49.404;11.152;2023-04-03T03:06:23;2.90;;;2.60;;
14768;SDS011;7476;49.404;11.152;2023-04-03T03:08:50;2.33;;;2.13;;
14768;SDS011;7476;49.404;11.152;2023-04-03T03:11:16;3.53;;;2.70;;
14768;SDS011;7476;49.404;11.152;2023-04-03T03:13:43;3.53;;;2.70;;
14768;SDS011;7476;49.404;11.152;2023-04-03T03:16:11;4.13;;;2.60;;
14768;SDS011;7476;49.404;11.152;2023-04-03T03:18:38;2.40;;;2.20;;
14768;SDS011;7476;49.404;11.152;2023-04-03T03:21:04;2.67;;;2.40;;
14768;SDS011;7476;49.404;11.152;2023-04-03T03:23:31;2.70;;;2.43;;
14768;SDS011;7476;49.404;11.152;2023-04-03T03:25:59;3.67;;;2.47;;
14768;SDS011;7476;49.404;11.152;2023-04-03T03:28:27;4.70;;;3.00;;
14768;SDS011;7476;49.404;11.152;2023-04-03T03:30:53;3.00;;;2.57;;
14768;SDS011;7476;49.404;11.152;2023-04-03T03:33:21;2.50;;;2.30;;
14768;SDS011;7476;49.404;11.152;2023-04-03T03:35:48;5.30;;;3.13;;
14768;SDS011;7476;49.404;11.152;2023-04-03T03:38:15;4.57;;;2.87;;
14768;SDS011;7476;49.404;11.152;2023-04-03T03:40:42;3.20;;;2.57;;
14768;SDS011;7476;49.404;11.152;2023-04-03T03:43:08;4.60;;;2.83;;
14768;SDS011;7476;49.404;11.152;2023-04-03T03:45:35;3.23;;;2.80;;
14768;SDS011;7476;49.404;11.152;2023-04-03T03:48:02;3.47;;;2.93;;
14768;SDS011;7476;49.404;11.152;2023-04-03T03:50:30;2.93;;;2.57;;
14768;SDS011;7476;49.404;11.152;2023-04-03T03:52:57;3.93;;;3.10;;
14768;SDS011;7476;49.404;11.152;2023-04-03T03:55:24;2.80;;;2.60;;
14768;SDS011;7476;49.404;11.152;2023-04-03T03:57:51;3.37;;;2.77;;
14768;SDS011;7476;49.404;11.152;2023-04-03T04:00:17;3.60;;;2.90;;
14768;SDS011;7476;49.404;11.152;2023-04-03T04:02:45;2.97;;;2.47;;
14768;SDS011;7476;49.404;11.152;2023-04-03T04:05:11;3.67;;;3.00;;
14768;SDS011;7476;49.404;11.152;2023-04-03T04:07:39;3.07;;;2.70;;
14768;SDS011;7476;49.404;11.152;2023-04-03T04:10:06;3.23;;;2.60;;
14768;SDS011;7476;49.404;11.152;2023-04-03T04:12:34;3.30;;;3.00;;
14768;SDS011;7476;49.404;11.152;2023-04-03T04:15:01;3.70;;;3.30;;
14768;SDS011;7476;49.404;11.152;2023-04-03T04:17:28;3.37;;;3.07;;
14768;SDS011;7476;49.404;11.152;2023-04-03T04:19:54;4.90;;;3.13;;
14768;SDS011;7476;49.404;11.152;2023-04-03T04:22:21;11.13;;;3.43;;
14768;SDS011;7476;49.404;11.152;2023-04-03T04:24:49;4.67;;;3.10;;
14768;SDS011;7476;49.404;11.152;2023-04-03T04:27:15;5.43;;;3.17;;
14768;SDS011;7476;49.404;11.152;2023-04-03T04:29:42;4.00;;;3.10;;
14768;SDS011;7476;49.404;11.152;2023-04-03T04:32:09;4.87;;;3.33;;
14768;SDS011;7476;49.404;11.152;2023-04-03T04:34:35;3.60;;;2.90;;
14768;SDS011;7476;49.404;11.152;2023-04-03T04:37:02;2.97;;;2.70;;
14768;SDS011;7476;49.404;11.152;2023-04-03T04:39:29;3.50;;;3.00;;
14768;SDS011;7476;49.404;11.152;2023-04-03T04:41:57;3.30;;;3.00;;
14768;SDS011;7476;49.404;11.152;2023-04-03T04:44:24;5.77;;;3.27;;
14768;SDS011;7476;49.404;11.152;2023-04-03T04:46:51;3.30;;;3.00;;
14768;SDS011;7476;49.404;11.152;2023-04-03T04:49:17;4.77;;;2.90;;
14768;SDS011;7476;49.404;11.152;2023-04-03T04:51:44;4.57;;;2.80;;
14768;SDS011;7476;49.404;11.152;2023-04-03T04:54:11;4.30;;;3.10;;
14768;SDS011;7476;49.404;11.152;2023-04-03T04:56:37;3.40;;;3.10;;
14768;SDS011;7476;49.404;11.152;2023-04-03T04:59:05;4.10;;;3.10;;
14768;SDS011;7476;49.404;11.152;2023-04-03T05:01:32;4.97;;;3.10;;
14768;SDS011;7476;49.404;11.152;2023-04-03T05:03:59;4.83;;;3.50;;
14768;SDS011;7476;49.404;11.152;2023-04-03T05:06:25;6.00;;;3.40;;
14768;SDS011;7476;49.404;11.152;2023-04-03T05:08:52;6.40;;;3.37;;
14768;SDS011;7476;49.404;11.152;2023-04-03T05:11:18;5.70;;;3.83;;
14768;SDS011;7476;49.404;11.152;2023-04-03T05:13:45;5.13;;;3.60;;
14768;SDS011;7476;49.404;11.152;2023-04-03T05:16:13;5.83;;;3.90;;
14768;SDS011;7476;49.404;11.152;2023-04-03T05:18:40;5.07;;;3.73;;
14768;SDS011;7476;49.404;11.152;2023-04-03T05:21:07;10.13;;;3.83;;
14768;SDS011;7476;49.404;11.152;2023-04-03T05:23:33;6.93;;;3.80;;
14768;SDS011;7476;49.404;11.152;2023-04-03T05:26:00;6.33;;;3.90;;
14768;SDS011;7476;49.404;11.152;2023-04-03T05:28:27;7.43;;;4.20;;
14768;SDS011;7476;49.404;11.152;2023-04-03T05:30:54;5.53;;;3.80;;
14768;SDS011;7476;49.404;11.152;2023-04-03T05:33:22;8.20;;;3.97;;
14768;SDS011;7476;49.404;11.152;2023-04-03T05:35:51;4.77;;;3.63;;
14768;SDS011;7476;49.404;11.152;2023-04-03T05:38:18;4.90;;;3.60;;
14768;SDS011;7476;49.404;11.152;2023-04-03T05:40:45;5.40;;;4.10;;
14768;SDS011;7476;49.404;11.152;2023-04-03T05:43:12;8.67;;;4.07;;
14768;SDS011;7476;49.404;11.152;2023-04-03T05:45:38;4.17;;;3.77;;
14768;SDS011;7476;49.404;11.152;2023-04-03T05:48:05;4.23;;;3.80;;
14768;SDS011;7476;49.404;11.152;2023-04-03T05:50:33;6.40;;;3.70;;
14768;SDS011;7476;49.404;11.152;2023-04-03T05:53:00;5.33;;;3.70;;
14768;SDS011;7476;49.404;11.152;2023-04-03T05:55:29;7.77;;;4.07;;
14768;SDS011;7476;49.404;11.152;2023-04-03T05:57:56;4.60;;;3.77;;
14768;SDS011;7476;49.404;11.152;2023-04-03T06:00:22;6.37;;;3.90;;
14768;SDS011;7476;49.404;11.152;2023-04-03T06:02:49;3.53;;;3.23;;
14768;SDS011;7476;49.404;11.152;2023-04-03T06:05:16;5.10;;;3.20;;
14768;SDS011;7476;49.404;11.152;2023-04-03T06:07:44;3.60;;;3.30;;
14768;SDS011;7476;49.404;11.152;2023-04-03T06:10:11;4.80;;;3.40;;
14768;SDS011;7476;49.404;11.152;2023-04-03T06:12:38;5.83;;;3.40;;
14768;SDS011;7476;49.404;11.152;2023-04-03T06:15:05;4.37;;;3.27;;
14768;SDS011;7476;49.404;11.152;2023-04-03T06:17:35;3.60;;;3.30;;
14768;SDS011;7476;49.404;11.152;2023-04-03T06:20:02;5.50;;;3.23;;
14768;SDS011;7476;49.404;11.152;2023-04-03T06:22:30;8.23;;;3.60;;
14768;SDS011;7476;49.404;11.152;2023-04-03T06:24:58;5.03;;;3.17;;
14768;SDS011;7476;49.404;11.152;2023-04-03T06:27:24;6.83;;;3.20;;
14768;SDS011;7476;49.404;11.152;2023-04-03T06:29:51;5.23;;;3.17;;
14768;SDS011;7476;49.404;11.152;2023-04-03T06:32:18;6.10;;;3.40;;
14768;SDS011;7476;49.404;11.152;2023-04-03T06:34:44;4.33;;;3.40;;
14768;SDS011;7476;49.404;11.152;2023-04-03T06:37:12;3.80;;;3.43;;
14768;SDS011;7476;49.404;11.152;2023-04-03T06:39:41;3.40;;;3.10;;
14768;SDS011;7476;49.404;11.152;2023-04-03T06:42:09;4.40;;;3.00;;
14768;SDS011;7476;49.404;11.152;2023-04-03T06:44:36;6.43;;;3.20;;
14768;SDS011;7476;49.404;11.152;2023-04-03T06:47:03;4.93;;;3.27;;
14768;SDS011;7476;49.404;11.152;2023-04-03T06:49:29;4.70;;;3.10;;
14768;SDS011;7476;49.404;11.152;2023-04-03T06:51:57;3.97;;;3.43;;
14768;SDS011;7476;49.404;11.152;2023-04-03T06:54:24;8.07;;;3.60;;
14768;SDS011;7476;49.404;11.152;2023-04-03T06:56:50;5.43;;;3.43;;
14768;SDS011;7476;49.404;11.152;2023-04-03T06:59:18;5.17;;;3.23;;
14768;SDS011;7476;49.404;11.152;2023-04-03T07:01:45;4.47;;;3.10;;
14768;SDS011;7476;49.404;11.152;2023-04-03T07:04:12;4.27;;;3.03;;
14768;SDS011;7476;49.404;11.152;2023-04-03T07:06:39;6.53;;;3.20;;
14768;SDS011;7476;49.404;11.152;2023-04-03T07:09:06;5.87;;;3.43;;
14768;SDS011;7476;49.404;11.152;2023-04-03T07:11:34;3.47;;;2.77;;
14768;SDS011;7476;49.404;11.152;2023-04-03T07:14:01;3.60;;;2.93;;
14768;SDS011;7476;49.404;11.152;2023-04-03T07:16:29;4.47;;;3.07;;
14768;SDS011;7476;49.404;11.152;2023-04-03T07:18:56;4.50;;;2.90;;
14768;SDS011;7476;49.404;11.152;2023-04-03T07:21:23;4.87;;;2.67;;
14768;SDS011;7476;49.404;11.152;2023-04-03T07:23:50;4.50;;;2.83;;
14768;SDS011;7476;49.404;11.152;2023-04-03T07:26:17;3.77;;;3.10;;
14768;SDS011;7476;49.404;11.152;2023-04-03T07:28:45;4.67;;;2.73;;
14768;SDS011;7476;49.404;11.152;2023-04-03T07:31:13;4.93;;;2.80;;
14768;SDS011;7476;49.404;11.152;2023-04-03T07:33:43;3.57;;;2.40;;
14768;SDS011;7476;49.404;11.152;2023-04-03T07:36:11;4.43;;;3.10;;
14768;SDS011;7476;49.404;11.152;2023-04-03T07:38:41;4.80;;;2.83;;
14768;SDS011;7476;49.404;11.152;2023-04-03T07:41:10;4.93;;;2.90;;
14768;SDS011;7476;49.404;11.152;2023-04-03T07:43:39;4.20;;;2.77;;
14768;SDS011;7476;49.404;11.152;2023-04-03T07:46:07;3.67;;;2.80;;
14768;SDS011;7476;49.404;11.152;2023-04-03T07:48:34;3.47;;;2.27;;
14768;SDS011;7476;49.404;11.152;2023-04-03T07:51:02;5.43;;;2.93;;
14768;SDS011;7476;49.404;11.152;2023-04-03T07:53:30;3.67;;;2.70;;
14768;SDS011;7476;49.404;11.152;2023-04-03T07:55:57;3.83;;;2.30;;
14768;SDS011;7476;49.404;11.152;2023-04-03T07:58:25;3.47;;;2.50;;
14768;SDS011;7476;49.404;11.152;2023-04-03T08:00:52;6.67;;;2.63;;
14768;SDS011;7476;49.404;11.152;2023-04-03T08:03:18;5.00;;;2.70;;
14768;SDS011;7476;49.404;11.152;2023-04-03T08:05:46;3.70;;;2.50;;
14768;SDS011;7476;49.404;11.152;2023-04-03T08:08:16;4.97;;;2.50;;
14768;SDS011;7476;49.404;11.152;2023-04-03T08:10:47;3.73;;;2.50;;
14768;SDS011;7476;49.404;11.152;2023-04-03T08:13:15;3.43;;;2.57;;
14768;SDS011;7476;49.404;11.152;2023-04-03T08:15:41;3.40;;;2.30;;
14768;SDS011;7476;49.404;11.152;2023-04-03T08:18:08;4.47;;;2.63;;
14768;SDS011;7476;49.404;11.152;2023-04-03T08:20:35;4.03;;;2.87;;
14768;SDS011;7476;49.404;11.152;2023-04-03T08:23:03;4.03;;;2.63;;
14768;SDS011;7476;49.404;11.152;2023-04-03T08:25:31;6.67;;;2.67;;
14768;SDS011;7476;49.404;11.152;2023-04-03T08:27:58;3.43;;;2.60;;
14768;SDS011;7476;49.404;11.152;2023-04-03T08:30:25;5.67;;;2.70;;
14768;SDS011;7476;49.404;11.152;2023-04-03T08:32:51;3.80;;;2.40;;
14768;SDS011;7476;49.404;11.152;2023-04-03T08:35:18;4.13;;;2.63;;
14768;SDS011;7476;49.404;11.152;2023-04-03T08:37:45;3.77;;;2.43;;
14768;SDS011;7476;49.404;11.152;2023-04-03T08:40:13;3.00;;;2.47;;
14768;SDS011;7476;49.404;11.152;2023-04-03T08:42:45;4.03;;;2.40;;
14768;SDS011;7476;49.404;11.152;2023-04-03T08:45:19;4.07;;;2.63;;
14768;SDS011;7476;49.404;11.152;2023-04-03T08:47:53;4.93;;;2.73;;
14768;SDS011;7476;49.404;11.152;2023-04-03T08:50:26;3.97;;;2.63;;
14768;SDS011;7476;49.404;11.152;2023-04-03T08:52:57;3.60;;;2.40;;
14768;SDS011;7476;49.404;11.152;2023-04-03T08:55:26;5.37;;;2.20;;
14768;SDS011;7476;49.404;11.152;2023-04-03T08:57:59;3.27;;;2.10;;
14768;SDS011;7476;49.404;11.152;2023-04-03T09:00:29;3.93;;;2.10;;
14768;SDS011;7476;49.404;11.152;2023-04-03T09:02:59;3.43;;;1.90;;
14768;SDS011;7476;49.404;11.152;2023-04-03T09:05:30;3.67;;;1.93;;
14768;SDS011;7476;49.404;11.152;2023-04-03T09:08:07;2.33;;;1.80;;
14768;SDS011;7476;49.404;11.152;2023-04-03T09:10:38;3.00;;;1.73;;
14768;SDS011;7476;49.404;11.152;2023-04-03T09:13:10;2.73;;;2.00;;
14768;SDS011;7476;49.404;11.152;2023-04-03T09:15:45;2.63;;;1.90;;
14768;SDS011;7476;49.404;11.152;2023-04-03T09:18:13;2.23;;;1.90;;
14768;SDS011;7476;49.404;11.152;2023-04-03T09:20:46;2.20;;;1.77;;
14768;SDS011;7476;49.404;11.152;2023-04-03T09:23:22;4.13;;;2.10;;
14768;SDS011;7476;49.404;11.152;2023-04-03T09:25:51;3.17;;;1.87;;
14768;SDS011;7476;49.404;11.152;2023-04-03T09:28:24;2.67;;;2.17;;
14768;SDS011;7476;49.404;11.152;2023-04-03T09:30:51;5.53;;;2.13;;
14768;SDS011;7476;49.404;11.152;2023-04-03T09:33:17;2.30;;;2.03;;
14768;SDS011;7476;49.404;11.152;2023-04-03T09:35:46;3.83;;;1.90;;
14768;SDS011;7476;49.404;11.152;2023-04-03T09:38:15;3.23;;;2.20;;
14768;SDS011;7476;49.404;11.152;2023-04-03T09:40:44;2.63;;;2.10;;
14768;SDS011;7476;49.404;11.152;2023-04-03T09:43:26;3.47;;;1.97;;
14768;SDS011;7476;49.404;11.152;2023-04-03T09:45:54;3.93;;;2.33;;
14768;SDS011;7476;49.404;11.152;2023-04-03T09:48:23;2.53;;;2.00;;
14768;SDS011;7476;49.404;11.152;2023-04-03T09:50:58;3.03;;;2.07;;
14768;SDS011;7476;49.404;11.152;2023-04-03T09:53:28;4.27;;;2.40;;
14768;SDS011;7476;49.404;11.152;2023-04-03T09:55:56;2.13;;;1.80;;
14768;SDS011;7476;49.404;11.152;2023-04-03T09:58:24;4.00;;;2.03;;
14768;SDS011;7476;49.404;11.152;2023-04-03T10:00:55;2.97;;;1.80;;
14768;SDS011;7476;49.404;11.152;2023-04-03T10:03:24;2.90;;;1.80;;
14768;SDS011;7476;49.404;11.152;2023-04-03T10:05:53;3.00;;;1.90;;
14768;SDS011;7476;49.404;11.152;2023-04-03T10:08:21;3.83;;;1.87;;
14768;SDS011;7476;49.404;11.152;2023-04-03T10:11:13;2.47;;;1.93;;
14768;SDS011;7476;49.404;11.152;2023-04-03T10:13:50;3.10;;;2.03;;
14768;SDS011;7476;49.404;11.152;2023-04-03T10:16:18;3.73;;;2.00;;
14768;SDS011;7476;49.404;11.152;2023-04-03T10:18:50;2.90;;;1.97;;
14768;SDS011;7476;49.404;11.152;2023-04-03T10:21:39;3.77;;;2.63;;
14768;SDS011;7476;49.404;11.152;2023-04-03T10:24:11;5.23;;;2.10;;
14768;SDS011;7476;49.404;11.152;2023-04-03T10:26:48;3.03;;;1.90;;
14768;SDS011;7476;49.404;11.152;2023-04-03T10:29:25;2.00;;;1.80;;
14768;SDS011;7476;49.404;11.152;2023-04-03T10:32:02;2.83;;;1.80;;
14768;SDS011;7476;49.404;11.152;2023-04-03T10:34:39;3.67;;;1.77;;
14768;SDS011;7476;49.404;11.152;2023-04-03T10:37:10;2.33;;;2.00;;
14768;SDS011;7476;49.404;11.152;2023-04-03T10:39:46;2.90;;;1.93;;
14768;SDS011;7476;49.404;11.152;2023-04-03T10:42:22;2.47;;;1.80;;
14768;SDS011;7476;49.404;11.152;2023-04-03T10:45:14;1.73;;;1.60;;
14768;SDS011;7476;49.404;11.152;2023-04-03T10:47:48;3.33;;;2.07;;
14768;SDS011;7476;49.404;11.152;2023-04-03T10:50:29;2.73;;;1.97;;
14768;SDS011;7476;49.404;11.152;2023-04-03T10:53:04;2.57;;;1.83;;
14768;SDS011;7476;49.404;11.152;2023-04-03T10:55:39;2.60;;;1.90;;
14768;SDS011;7476;49.404;11.152;2023-04-03T11:00:45;2.30;;;1.70;;
14768;SDS011;7476;49.404;11.152;2023-04-03T11:03:15;2.90;;;1.90;;
14768;SDS011;7476;49.404;11.152;2023-04-03T11:05:51;2.80;;;1.90;;
14768;SDS011;7476;49.404;11.152;2023-04-03T11:08:23;2.77;;;1.80;;
14768;SDS011;7476;49.404;11.152;2023-04-03T11:10:55;2.30;;;1.87;;
14768;SDS011;7476;49.404;11.152;2023-04-03T11:13:27;1.93;;;1.70;;
14768;SDS011;7476;49.404;11.152;2023-04-03T11:16:00;2.40;;;2.20;;
14768;SDS011;7476;49.404;11.152;2023-04-03T11:18:31;2.33;;;1.87;;
14768;SDS011;7476;49.404;11.152;2023-04-03T11:21:03;2.70;;;2.07;;
14768;SDS011;7476;49.404;11.152;2023-04-03T11:23:34;2.77;;;2.00;;
14768;SDS011;7476;49.404;11.152;2023-04-03T11:26:07;3.10;;;1.90;;
14768;SDS011;7476;49.404;11.152;2023-04-03T11:28:37;3.13;;;2.00;;
14768;SDS011;7476;49.404;11.152;2023-04-03T11:31:09;2.87;;;2.03;;
14768;SDS011;7476;49.404;11.152;2023-04-03T11:33:47;2.47;;;1.60;;
14768;SDS011;7476;49.404;11.152;2023-04-03T11:36:21;2.30;;;1.70;;
14768;SDS011;7476;49.404;11.152;2023-04-03T11:38:51;2.17;;;1.70;;
14768;SDS011;7476;49.404;11.152;2023-04-03T11:41:24;2.37;;;1.90;;
14768;SDS011;7476;49.404;11.152;2023-04-03T11:43:56;4.90;;;1.83;;
14768;SDS011;7476;49.404;11.152;2023-04-03T11:58:21;3.00;;;1.90;;
14768;SDS011;7476;49.404;11.152;2023-04-03T12:00:54;2.20;;;2.00;;
14768;SDS011;7476;49.404;11.152;2023-04-03T12:03:31;3.63;;;2.00;;
14768;SDS011;7476;49.404;11.152;2023-04-03T12:12:55;2.57;;;1.73;;
14768;SDS011;7476;49.404;11.152;2023-04-03T12:18:37;2.43;;;1.60;;
14768;SDS011;7476;49.404;11.152;2023-04-03T12:21:08;1.90;;;1.57;;
14768;SDS011;7476;49.404;11.152;2023-04-03T12:23:36;2.20;;;1.70;;
14768;SDS011;7476;49.404;11.152;2023-04-03T12:26:21;2.10;;;1.53;;
14768;SDS011;7476;49.404;11.152;2023-04-03T12:28:52;2.50;;;1.83;;
14768;SDS011;7476;49.404;11.152;2023-04-03T12:31:20;1.90;;;1.70;;
14768;SDS011;7476;49.404;11.152;2023-04-03T12:34:01;2.77;;;1.50;;
14768;SDS011;7476;49.404;11.152;2023-04-03T12:36:40;2.00;;;1.53;;
14768;SDS011;7476;49.404;11.152;2023-04-03T12:39:20;1.57;;;1.40;;
14768;SDS011;7476;49.404;11.152;2023-04-03T12:45:16;1.90;;;1.40;;
14768;SDS011;7476;49.404;11.152;2023-04-03T12:47:45;2.47;;;1.40;;
14768;SDS011;7476;49.404;11.152;2023-04-03T12:50:22;3.70;;;1.73;;
14768;SDS011;7476;49.404;11.152;2023-04-03T12:52:59;2.27;;;1.53;;
14768;SDS011;7476;49.404;11.152;2023-04-03T12:55:30;2.83;;;1.70;;
14768;SDS011;7476;49.404;11.152;2023-04-03T12:57:57;2.03;;;1.37;;
14768;SDS011;7476;49.404;11.152;2023-04-03T13:00:38;2.20;;;1.60;;
14768;SDS011;7476;49.404;11.152;2023-04-03T13:03:06;3.10;;;1.67;;
14768;SDS011;7476;49.404;11.152;2023-04-03T13:05:49;1.80;;;1.50;;
14768;SDS011;7476;49.404;11.152;2023-04-03T13:08:16;2.40;;;1.20;;
14768;SDS011;7476;49.404;11.152;2023-04-03T13:10:50;1.83;;;1.40;;
14768;SDS011;7476;49.404;11.152;2023-04-03T13:13:21;2.50;;;1.53;;
14768;SDS011;7476;49.404;11.152;2023-04-03T13:15:49;3.37;;;1.30;;
14768;SDS011;7476;49.404;11.152;2023-04-03T13:18:26;2.13;;;1.40;;
14768;SDS011;7476;49.404;11.152;2023-04-03T13:20:57;2.20;;;1.30;;
14768;SDS011;7476;49.404;11.152;2023-04-03T13:23:27;2.77;;;1.50;;
14768;SDS011;7476;49.404;11.152;2023-04-03T13:25:56;1.60;;;1.37;;
14768;SDS011;7476;49.404;11.152;2023-04-03T13:28:27;1.87;;;1.40;;
14768;SDS011;7476;49.404;11.152;2023-04-03T13:30:55;1.73;;;1.50;;
14768;SDS011;7476;49.404;11.152;2023-04-03T13:33:27;1.90;;;1.70;;
14768;SDS011;7476;49.404;11.152;2023-04-03T13:35:58;2.50;;;1.50;;
14768;SDS011;7476;49.404;11.152;2023-04-03T13:38:29;1.47;;;1.37;;
14768;SDS011;7476;49.404;11.152;2023-04-03T13:40:59;1.80;;;1.60;;
14768;SDS011;7476;49.404;11.152;2023-04-03T13:43:28;2.10;;;1.70;;
14768;SDS011;7476;49.404;11.152;2023-04-03T13:45:58;3.40;;;1.70;;
14768;SDS011;7476;49.404;11.152;2023-04-03T13:48:34;1.97;;;1.67;;
14768;SDS011;7476;49.404;11.152;2023-04-03T13:51:04;4.20;;;1.80;;
14768;SDS011;7476;49.404;11.152;2023-04-03T13:53:33;2.30;;;2.03;;
14768;SDS011;7476;49.404;11.152;2023-04-03T13:56:08;4.23;;;1.93;;
14768;SDS011;7476;49.404;11.152;2023-04-03T13:58:51;2.30;;;1.87;;
14768;SDS011;7476;49.404;11.152;2023-04-03T14:01:20;2.07;;;1.70;;
14768;SDS011;7476;49.404;11.152;2023-04-03T14:03:52;2.17;;;1.53;;
14768;SDS011;7476;49.404;11.152;2023-04-03T14:06:23;2.43;;;1.57;;
14768;SDS011;7476;49.404;11.152;2023-04-03T14:08:50;2.60;;;1.83;;
14768;SDS011;7476;49.404;11.152;2023-04-03T14:11:18;2.57;;;1.90;;
14768;SDS011;7476;49.404;11.152;2023-04-03T14:13:47;3.17;;;2.07;;
14768;SDS011;7476;49.404;11.152;2023-04-03T14:16:16;2.40;;;1.87;;
14768;SDS011;7476;49.404;11.152;2023-04-03T14:18:46;2.10;;;1.50;;
14768;SDS011;7476;49.404;11.152;2023-04-03T14:21:17;2.53;;;1.67;;
14768;SDS011;7476;49.404;11.152;2023-04-03T14:23:47;2.00;;;1.77;;
14768;SDS011;7476;49.404;11.152;2023-04-03T14:26:16;3.43;;;1.83;;
14768;SDS011;7476;49.404;11.152;2023-04-03T14:28:45;2.93;;;1.70;;
14768;SDS011;7476;49.404;11.152;2023-04-03T14:31:14;2.03;;;1.70;;
14768;SDS011;7476;49.404;11.152;2023-04-03T14:33:42;3.43;;;1.80;;
14768;SDS011;7476;49.404;11.152;2023-04-03T14:36:11;2.83;;;1.80;;
14768;SDS011;7476;49.404;11.152;2023-04-03T14:38:40;2.97;;;2.10;;
14768;SDS011;7476;49.404;11.152;2023-04-03T14:41:09;3.33;;;1.70;;
14768;SDS011;7476;49.404;11.152;2023-04-03T14:43:38;2.03;;;1.80;;
14768;SDS011;7476;49.404;11.152;2023-04-03T14:46:05;3.00;;;1.70;;
14768;SDS011;7476;49.404;11.152;2023-04-03T14:48:37;2.07;;;1.60;;
14768;SDS011;7476;49.404;11.152;2023-04-03T14:51:03;2.07;;;1.70;;
14768;SDS011;7476;49.404;11.152;2023-04-03T14:53:30;2.33;;;1.70;;
14768;SDS011;7476;49.404;11.152;2023-04-03T14:55:57;2.20;;;2.00;;
14768;SDS011;7476;49.404;11.152;2023-04-03T14:58:26;2.53;;;1.60;;
14768;SDS011;7476;49.404;11.152;2023-04-03T15:00:53;3.20;;;1.93;;
14768;SDS011;7476;49.404;11.152;2023-04-03T15:03:21;2.40;;;1.93;;
14768;SDS011;7476;49.404;11.152;2023-04-03T15:05:48;2.60;;;1.70;;
14768;SDS011;7476;49.404;11.152;2023-04-03T15:08:17;2.03;;;1.40;;
14768;SDS011;7476;49.404;11.152;2023-04-03T15:10:46;2.37;;;1.57;;
14768;SDS011;7476;49.404;11.152;2023-04-03T15:13:13;2.70;;;1.77;;
14768;SDS011;7476;49.404;11.152;2023-04-03T15:15:41;3.00;;;1.60;;
14768;SDS011;7476;49.404;11.152;2023-04-03T15:18:10;3.17;;;1.67;;
14768;SDS011;7476;49.404;11.152;2023-04-03T15:20:41;2.13;;;1.80;;
14768;SDS011;7476;49.404;11.152;2023-04-03T15:23:08;2.30;;;1.43;;
14768;SDS011;7476;49.404;11.152;2023-04-03T15:25:36;2.00;;;1.73;;
14768;SDS011;7476;49.404;11.152;2023-04-03T15:28:03;2.07;;;1.67;;
14768;SDS011;7476;49.404;11.152;2023-04-03T15:30:30;2.57;;;1.53;;